Grand Princess — ZCBU5 — position and weather

sailwx.info

Track history (hours):
 
Tides and Currents Weather Stations Pressure Air Temp Water Temp Dewpoint Dewpoint Depression Visibility Wind Speed Wind Dir Waves Ship Positions

Grand Princess

Operator: Princess Cruises

Last reported at 2014-Jul-22 10:33 UTC. Time now 2014-Jul-23 07:27 UTC.
Position N 54°51' W 131°08'.

Length 289.5 m; beam 36 m; draft 8.5 m.

Type: Ship. MMSI: 310327000.

Date/timePositionNaut miles runAvg speedWind from/ knotsBaromVisibWave heightAir tempDewpointWater temp
2014-Jul-22 10:33N 54°51' W 131°08'1413.7
2014-Jul-22 09:31N 54°38' W 131°17'1212.5
2014-Jul-22 08:31N 54°26' W 131°11'1313.8
2014-Jul-22 07:33N 54°13' W 131°03'19316.7
2014-Jul-21 20:00N 51°06' W 129°42'15317.6 170 / 251012.6 5.4 1.513.011.313.0
2014-Jul-21 11:19N 49°16' W 126°56'1419.2
2014-Jul-21 10:33N 49°07' W 126°39'1919.4
2014-Jul-21 09:34N 48°55' W 126°16'1919.5
2014-Jul-21 08:34N 48°44' W 125°51'2019.6
2014-Jul-21 07:34N 48°36' W 125°24'1918.5
2014-Jul-21 06:33N 48°31' W 124°57'3818.9
2014-Jul-21 04:33N 48°19' W 124°03'1818.5
2014-Jul-21 03:33N 48°15' W 123°36'1414.1
2014-Jul-21 02:33N 48°10' W 123°16'1919.0
2014-Jul-21 01:33N 48°12' W 122°48'1919.3
2014-Jul-21 00:33N 47°56' W 122°30'1818.1
2014-Jul-20 23:33N 47°38' W 122°27'2 2.4
2014-Jul-20 22:32N 47°38' W 122°23'0 0.0
2014-Jul-20 21:31N 47°38' W 122°23'0 0.0
2014-Jul-20 20:31N 47°38' W 122°23'0 0.0
2014-Jul-20 19:31N 47°38' W 122°23'0 0.0
2014-Jul-20 18:33N 47°38' W 122°23'0 0.0
2014-Jul-20 17:33N 47°38' W 122°23'0 0.0
2014-Jul-20 16:32N 47°38' W 122°23'0 0.0
2014-Jul-20 15:32N 47°38' W 122°23'0 0.0
2014-Jul-20 14:32N 47°38' W 122°23'0 0.0
2014-Jul-20 13:33N 47°38' W 122°23'5 5.2
2014-Jul-20 12:33N 47°42' W 122°28'1515.3
2014-Jul-20 11:33N 47°57' W 122°33'1515.0
2014-Jul-20 10:33N 48°09' W 122°45'1515.0
2014-Jul-20 09:34N 48°12' W 123°07'1514.5
2014-Jul-20 08:33N 48°11' W 123°29'1413.7
2014-Jul-20 07:33N 48°25' W 123°24'1 0.5
2014-Jul-20 06:34N 48°25' W 123°23'0 0.0
2014-Jul-20 05:33N 48°25' W 123°23'0 0.0
2014-Jul-20 04:33N 48°25' W 123°23'0 0.0
2014-Jul-20 03:29N 48°25' W 123°23'0 0.0
2014-Jul-20 02:29N 48°25' W 123°23'0 0.2
2014-Jul-20 01:33N 48°25' W 123°24'6 6.1
2014-Jul-20 00:33N 48°19' W 123°25'1212.4
2014-Jul-19 23:33N 48°13' W 123°42'1414.4
2014-Jul-19 22:33N 48°16' W 124°03'1616.0
2014-Jul-19 21:33N 48°23' W 124°25'1817.8
2014-Jul-19 20:33N 48°29' W 124°50'1918.8
2014-Jul-19 19:34N 48°31' W 125°18'1919.5
2014-Jul-19 18:34N 48°42' W 125°43'1919.0
2014-Jul-19 17:33N 48°54' W 126°05'1918.9
2014-Jul-19 16:33N 49°05' W 126°29'37818.4
2014-Jul-18 20:00N 53°36' W 133°30'   270 / 251008.7 5.4 2.015.012.514.0
2014-Jul-16 10:00N 56°42' W 134°24'155 6.7 010 / 221023.3 5.4 12.0 9.310.0
2014-Jul-15 11:00N 54°54' W 131°06'2615.5 140 / 221021.2 5.4 1.015.513.015.0
2014-Jul-15 09:17N 54°28' W 131°13'1114.8
2014-Jul-15 08:33N 54°18' W 131°04'29516.4
2014-Jul-14 14:34N 49°47' W 127°55'2118.8
2014-Jul-14 13:27N 49°34' W 127°30'1718.8
2014-Jul-14 12:32N 49°22' W 127°10'1818.8
2014-Jul-14 11:34N 49°11' W 126°48'1919.1
2014-Jul-14 10:34N 48°59' W 126°25'1919.2
2014-Jul-14 09:34N 48°47' W 126°02'1817.8
2014-Jul-14 08:33N 48°40' W 125°37'2019.5
2014-Jul-14 07:33N 48°32' W 125°10'1919.2
2014-Jul-14 06:34N 48°30' W 124°42'1919.3
2014-Jul-14 05:33N 48°23' W 124°14'2019.4
2014-Jul-14 04:33N 48°17' W 123°47'1817.9
2014-Jul-14 03:34N 48°10' W 123°22'1413.8
2014-Jul-14 02:33N 48°13' W 123°01'1616.3
2014-Jul-14 01:33N 48°05' W 122°39'1716.7
2014-Jul-14 00:34N 47°51' W 122°27'1413.7
2014-Jul-13 23:33N 47°37' W 122°23'0 0.4
2014-Jul-13 22:32N 47°38' W 122°23'0 0.0
2014-Jul-13 21:26N 47°38' W 122°23'0 0.0
2014-Jul-13 20:30N 47°38' W 122°23'0 0.0
2014-Jul-13 19:25N 47°38' W 122°23'0 0.0
2014-Jul-13 18:33N 47°38' W 122°23'0 0.0
2014-Jul-13 17:30N 47°38' W 122°23'0 0.0
2014-Jul-13 16:33N 47°38' W 122°23'0 0.0
2014-Jul-13 15:28N 47°38' W 122°23'0 0.0
2014-Jul-13 14:32N 47°38' W 122°23'0 0.0
2014-Jul-13 13:34N 47°38' W 122°23'6 5.6
2014-Jul-13 12:33N 47°42' W 122°28'1413.7
2014-Jul-13 11:34N 47°56' W 122°31'1413.7
2014-Jul-13 10:34N 48°07' W 122°42'1615.4
2014-Jul-13 09:33N 48°12' W 123°04'1414.6
2014-Jul-13 08:33N 48°11' W 123°26'1312.9
2014-Jul-13 07:33N 48°24' W 123°24'2 1.5
2014-Jul-13 06:31N 48°25' W 123°23'0 0.0
2014-Jul-13 05:28N 48°25' W 123°23'0 0.0
2014-Jul-13 04:28N 48°25' W 123°23'0 0.0
2014-Jul-13 03:30N 48°25' W 123°23'0 0.0
2014-Jul-13 02:33N 48°25' W 123°23'0 0.0
2014-Jul-13 01:32N 48°25' W 123°23'5 4.8
2014-Jul-13 00:34N 48°20' W 123°24'1312.8
2014-Jul-12 23:33N 48°13' W 123°40'1616.0
2014-Jul-12 22:34N 48°16' W 124°04'1818.1
2014-Jul-12 21:34N 48°24' W 124°29'1717.1
2014-Jul-12 20:33N 48°28' W 124°54'1818.2
2014-Jul-12 19:34N 48°33' W 125°20'1919.0
2014-Jul-12 18:34N 48°43' W 125°44'1918.8
2014-Jul-12 17:34N 48°55' W 126°07'1918.9
2014-Jul-12 16:34N 49°06' W 126°31'1919.3
2014-Jul-12 15:34N 49°16' W 126°55'2019.8
2014-Jul-12 14:33N 49°28' W 127°20'1919.3
2014-Jul-12 13:33N 49°41' W 127°41'  
Track history (hours):
 
Tides and Currents Weather Stations Pressure Air Temp Water Temp Dewpoint Dewpoint Depression Visibility Wind Speed Wind Dir Waves Ship Positions

Grand Princess

Operator: Princess Cruises

Last reported at 2014-Jul-22 10:33 UTC. Time now 2014-Jul-23 07:27 UTC.
Position N 54°51' W 131°08'.

Length 289.5 m; beam 36 m; draft 8.5 m.

Type: Ship. MMSI: 310327000.

Date/timePositionNaut miles runAvg speedWind from/ knotsBaromVisibWave heightAir tempDewpointWater temp
2014-Jul-22 10:33N 54°51' W 131°08'1413.7
2014-Jul-22 09:31N 54°38' W 131°17'1212.5
2014-Jul-22 08:31N 54°26' W 131°11'1313.8
2014-Jul-22 07:33N 54°13' W 131°03'19316.7
2014-Jul-21 20:00N 51°06' W 129°42'15317.6 170 / 251012.6 5.4 1.513.011.313.0
2014-Jul-21 11:19N 49°16' W 126°56'1419.2
2014-Jul-21 10:33N 49°07' W 126°39'1919.4
2014-Jul-21 09:34N 48°55' W 126°16'1919.5
2014-Jul-21 08:34N 48°44' W 125°51'2019.6
2014-Jul-21 07:34N 48°36' W 125°24'1918.5
2014-Jul-21 06:33N 48°31' W 124°57'3818.9
2014-Jul-21 04:33N 48°19' W 124°03'1818.5
2014-Jul-21 03:33N 48°15' W 123°36'1414.1
2014-Jul-21 02:33N 48°10' W 123°16'1919.0
2014-Jul-21 01:33N 48°12' W 122°48'1919.3
2014-Jul-21 00:33N 47°56' W 122°30'1818.1
2014-Jul-20 23:33N 47°38' W 122°27'2 2.4
2014-Jul-20 22:32N 47°38' W 122°23'0 0.0
2014-Jul-20 21:31N 47°38' W 122°23'0 0.0
2014-Jul-20 20:31N 47°38' W 122°23'0 0.0
2014-Jul-20 19:31N 47°38' W 122°23'0 0.0
2014-Jul-20 18:33N 47°38' W 122°23'0 0.0
2014-Jul-20 17:33N 47°38' W 122°23'0 0.0
2014-Jul-20 16:32N 47°38' W 122°23'0 0.0
2014-Jul-20 15:32N 47°38' W 122°23'0 0.0
2014-Jul-20 14:32N 47°38' W 122°23'0 0.0
2014-Jul-20 13:33N 47°38' W 122°23'5 5.2
2014-Jul-20 12:33N 47°42' W 122°28'1515.3
2014-Jul-20 11:33N 47°57' W 122°33'1515.0
2014-Jul-20 10:33N 48°09' W 122°45'1515.0
2014-Jul-20 09:34N 48°12' W 123°07'1514.5
2014-Jul-20 08:33N 48°11' W 123°29'1413.7
2014-Jul-20 07:33N 48°25' W 123°24'1 0.5
2014-Jul-20 06:34N 48°25' W 123°23'0 0.0
2014-Jul-20 05:33N 48°25' W 123°23'0 0.0
2014-Jul-20 04:33N 48°25' W 123°23'0 0.0
2014-Jul-20 03:29N 48°25' W 123°23'0 0.0
2014-Jul-20 02:29N 48°25' W 123°23'0 0.2
2014-Jul-20 01:33N 48°25' W 123°24'6 6.1
2014-Jul-20 00:33N 48°19' W 123°25'1212.4
2014-Jul-19 23:33N 48°13' W 123°42'1414.4
2014-Jul-19 22:33N 48°16' W 124°03'1616.0
2014-Jul-19 21:33N 48°23' W 124°25'1817.8
2014-Jul-19 20:33N 48°29' W 124°50'1918.8
2014-Jul-19 19:34N 48°31' W 125°18'1919.5
2014-Jul-19 18:34N 48°42' W 125°43'1919.0
2014-Jul-19 17:33N 48°54' W 126°05'1918.9
2014-Jul-19 16:33N 49°05' W 126°29'37818.4
2014-Jul-18 20:00N 53°36' W 133°30'   270 / 251008.7 5.4 2.015.012.514.0
2014-Jul-16 10:00N 56°42' W 134°24'155 6.7 010 / 221023.3 5.4 12.0 9.310.0
2014-Jul-15 11:00N 54°54' W 131°06'2615.5 140 / 221021.2 5.4 1.015.513.015.0
2014-Jul-15 09:17N 54°28' W 131°13'1114.8
2014-Jul-15 08:33N 54°18' W 131°04'29516.4
2014-Jul-14 14:34N 49°47' W 127°55'2118.8
2014-Jul-14 13:27N 49°34' W 127°30'1718.8
2014-Jul-14 12:32N 49°22' W 127°10'1818.8
2014-Jul-14 11:34N 49°11' W 126°48'1919.1
2014-Jul-14 10:34N 48°59' W 126°25'1919.2
2014-Jul-14 09:34N 48°47' W 126°02'1817.8
2014-Jul-14 08:33N 48°40' W 125°37'2019.5
2014-Jul-14 07:33N 48°32' W 125°10'1919.2
2014-Jul-14 06:34N 48°30' W 124°42'1919.3
2014-Jul-14 05:33N 48°23' W 124°14'2019.4
2014-Jul-14 04:33N 48°17' W 123°47'1817.9
2014-Jul-14 03:34N 48°10' W 123°22'1413.8
2014-Jul-14 02:33N 48°13' W 123°01'1616.3
2014-Jul-14 01:33N 48°05' W 122°39'1716.7
2014-Jul-14 00:34N 47°51' W 122°27'1413.7
2014-Jul-13 23:33N 47°37' W 122°23'0 0.4
2014-Jul-13 22:32N 47°38' W 122°23'0 0.0
2014-Jul-13 21:26N 47°38' W 122°23'0 0.0
2014-Jul-13 20:30N 47°38' W 122°23'0 0.0
2014-Jul-13 19:25N 47°38' W 122°23'0 0.0
2014-Jul-13 18:33N 47°38' W 122°23'0 0.0
2014-Jul-13 17:30N 47°38' W 122°23'0 0.0
2014-Jul-13 16:33N 47°38' W 122°23'0 0.0
2014-Jul-13 15:28N 47°38' W 122°23'0 0.0
2014-Jul-13 14:32N 47°38' W 122°23'0 0.0
2014-Jul-13 13:34N 47°38' W 122°23'6 5.6
2014-Jul-13 12:33N 47°42' W 122°28'1413.7
2014-Jul-13 11:34N 47°56' W 122°31'1413.7
2014-Jul-13 10:34N 48°07' W 122°42'1615.4
2014-Jul-13 09:33N 48°12' W 123°04'1414.6
2014-Jul-13 08:33N 48°11' W 123°26'1312.9
2014-Jul-13 07:33N 48°24' W 123°24'2 1.5
2014-Jul-13 06:31N 48°25' W 123°23'0 0.0
2014-Jul-13 05:28N 48°25' W 123°23'0 0.0
2014-Jul-13 04:28N 48°25' W 123°23'0 0.0
2014-Jul-13 03:30N 48°25' W 123°23'0 0.0
2014-Jul-13 02:33N 48°25' W 123°23'0 0.0
2014-Jul-13 01:32N 48°25' W 123°23'5 4.8
2014-Jul-13 00:34N 48°20' W 123°24'1312.8
2014-Jul-12 23:33N 48°13' W 123°40'1616.0
2014-Jul-12 22:34N 48°16' W 124°04'1818.1
2014-Jul-12 21:34N 48°24' W 124°29'1717.1
2014-Jul-12 20:33N 48°28' W 124°54'1818.2
2014-Jul-12 19:34N 48°33' W 125°20'1919.0
2014-Jul-12 18:34N 48°43' W 125°44'1918.8
2014-Jul-12 17:34N 48°55' W 126°07'1918.9
2014-Jul-12 16:34N 49°06' W 126°31'1919.3
2014-Jul-12 15:34N 49°16' W 126°55'2019.8
2014-Jul-12 14:33N 49°28' W 127°20'1919.3
2014-Jul-12 13:33N 49°41' W 127°41'  

Dump ship's entire track history